Time;durP1;ratioP1;P1;durP2;ratioP2;P2;SDS_P1;SDS_P2;PMS_P1;PMS_P2;Temp;Humidity;BMP_temperature;BMP_pressure;BME280_temperature;BME280_humidity;BME280_pressure;Samples;Min_cycle;Max_cycle;Signal;HPM_P1;HPM_P2
2023/09/25 00:01:33;;;;;;;3.17;1.77;;;15.80;1.00;;;;;;5095320;28;20890;-71
2023/09/25 00:04:00;;;;;;;3.10;2.10;;;15.80;1.00;;;;;;5095323;28;20718;-71
2023/09/25 00:06:26;;;;;;;2.70;1.90;;;15.80;1.00;;;;;;5095312;28;20167;-71
2023/09/25 00:08:51;;;;;;;2.47;2.10;;;15.70;1.00;;;;;;5095129;28;20251;-71
2023/09/25 00:11:17;;;;;;;2.47;2.20;;;15.70;1.00;;;;;;5095049;28;20179;-71
2023/09/25 00:13:43;;;;;;;3.63;2.10;;;15.70;1.00;;;;;;5093512;28;20687;-71
2023/09/25 00:16:16;;;;;;;3.57;2.17;;;15.70;1.00;;;;;;5093572;28;20203;-71
2023/09/25 00:18:42;;;;;;;2.63;2.00;;;15.70;1.00;;;;;;5095105;28;20171;-71
2023/09/25 00:21:08;;;;;;;2.57;1.90;;;15.70;1.00;;;;;;5094631;28;20227;-71
2023/09/25 00:23:34;;;;;;;5.60;2.07;;;15.70;1.00;;;;;;5094823;28;20662;-71
2023/09/25 00:26:03;;;;;;;2.47;2.10;;;15.60;1.00;;;;;;5093639;28;20654;-71
2023/09/25 00:28:29;;;;;;;2.97;2.10;;;15.60;1.00;;;;;;5093194;28;20184;-71
2023/09/25 00:30:55;;;;;;;2.57;2.00;;;15.60;1.00;;;;;;5094558;28;20187;-70
2023/09/25 00:33:20;;;;;;;3.00;2.10;;;15.60;1.00;;;;;;5094900;28;20179;-71
2023/09/25 00:35:46;;;;;;;5.27;2.33;;;15.50;1.00;;;;;;5094777;28;20537;-71
2023/09/25 00:38:12;;;;;;;2.87;2.10;;;15.50;1.00;;;;;;5094724;28;20191;-71
2023/09/25 00:40:37;;;;;;;2.47;2.20;;;15.50;1.00;;;;;;5094592;28;20180;-71
2023/09/25 00:43:05;;;;;;;3.27;2.60;;;15.50;1.00;;;;;;5094240;28;20230;-71
2023/09/25 00:45:32;;;;;;;3.00;2.60;;;15.40;1.00;;;;;;5094302;28;20164;-70
2023/09/25 00:47:58;;;;;;;3.50;2.20;;;15.40;1.00;;;;;;5094014;28;20286;-70
2023/09/25 00:50:29;;;;;;;2.50;2.30;;;15.40;1.00;;;;;;5094462;28;20179;-71
2023/09/25 00:52:55;;;;;;;2.27;2.07;;;15.40;1.00;;;;;;5094331;28;20183;-71
2023/09/25 00:55:21;;;;;;;3.23;2.03;;;15.40;1.00;;;;;;5094253;28;20179;-72
2023/09/25 00:57:48;;;;;;;3.17;2.17;;;15.40;1.00;;;;;;5094311;28;20624;-72
2023/09/25 01:00:14;;;;;;;2.87;2.10;;;15.40;1.00;;;;;;5094052;28;20178;-70
2023/09/25 01:02:41;;;;;;;3.00;2.03;;;15.40;1.00;;;;;;5092847;28;20172;-70
2023/09/25 01:05:11;;;;;;;2.30;2.10;;;15.40;1.00;;;;;;5094315;28;20176;-72
2023/09/25 01:07:38;;;;;;;2.43;2.17;;;15.30;1.00;;;;;;5094376;28;20164;-69
2023/09/25 01:10:04;;;;;;;2.37;1.97;;;15.30;1.00;;;;;;5093452;28;20163;-70
2023/09/25 01:12:32;;;;;;;2.23;2.03;;;15.30;1.00;;;;;;5094003;28;20239;-70
2023/09/25 01:14:58;;;;;;;3.43;2.20;;;15.30;1.00;;;;;;5094042;28;20180;-70
2023/09/25 01:17:24;;;;;;;3.80;1.80;;;15.30;1.00;;;;;;5093851;28;20228;-71
2023/09/25 01:19:49;;;;;;;2.27;1.80;;;15.30;1.00;;;;;;5093646;28;20192;-70
2023/09/25 01:22:15;;;;;;;2.90;2.10;;;15.30;1.00;;;;;;5093953;28;20633;-71
2023/09/25 01:24:40;;;;;;;2.50;2.10;;;15.30;1.00;;;;;;5092034;28;20207;-71
2023/09/25 01:27:06;;;;;;;3.10;2.10;;;15.30;1.00;;;;;;5093627;28;20167;-71
2023/09/25 01:29:32;;;;;;;1.93;1.83;;;15.30;1.00;;;;;;5092545;28;20175;-71
2023/09/25 01:31:57;;;;;;;2.83;2.10;;;15.30;1.00;;;;;;5093674;28;20172;-71
2023/09/25 01:34:23;;;;;;;3.33;2.03;;;15.30;1.00;;;;;;5093700;28;20223;-71
2023/09/25 01:36:50;;;;;;;2.40;2.20;;;15.30;1.00;;;;;;5093732;28;20243;-71
2023/09/25 01:39:16;;;;;;;2.30;2.07;;;15.30;1.00;;;;;;5093228;28;20187;-71
2023/09/25 01:41:41;;;;;;;1.77;1.63;;;15.40;1.00;;;;;;5093525;28;20168;-71
2023/09/25 01:44:07;;;;;;;2.03;1.93;;;15.30;1.00;;;;;;5093653;28;20266;-71
2023/09/25 01:46:33;;;;;;;2.17;1.97;;;15.30;1.00;;;;;;5093409;28;20194;-71
2023/09/25 01:48:59;;;;;;;2.77;2.07;;;15.20;1.00;;;;;;5092183;28;20183;-71
2023/09/25 01:51:24;;;;;;;2.13;2.03;;;15.30;1.00;;;;;;5093368;28;20167;-71
2023/09/25 01:53:50;;;;;;;2.33;2.13;;;15.30;1.00;;;;;;5093019;28;20171;-71
2023/09/25 01:56:16;;;;;;;2.73;2.10;;;15.20;1.00;;;;;;5093257;28;20178;-71
2023/09/25 01:58:43;;;;;;;3.97;2.50;;;15.20;1.00;;;;;;5093233;28;20524;-71
2023/09/25 02:01:09;;;;;;;2.23;2.03;;;15.10;1.00;;;;;;5093078;28;20250;-71
2023/09/25 02:03:35;;;;;;;2.10;2.00;;;15.20;1.00;;;;;;5093181;28;20283;-71
2023/09/25 02:06:00;;;;;;;2.00;1.80;;;15.20;1.00;;;;;;5093216;28;20238;-71
2023/09/25 02:08:26;;;;;;;2.17;2.00;;;15.20;1.00;;;;;;5092835;28;20505;-71
2023/09/25 02:10:52;;;;;;;2.83;2.10;;;15.20;1.00;;;;;;5091847;28;20164;-71
2023/09/25 02:13:17;;;;;;;4.17;2.23;;;15.20;1.00;;;;;;5093134;28;20263;-71
2023/09/25 02:15:43;;;;;;;1.80;1.70;;;15.30;1.00;;;;;;5092136;28;20167;-71
2023/09/25 02:18:09;;;;;;;2.50;1.87;;;15.40;1.00;;;;;;5093130;28;20506;-70
2023/09/25 02:20:35;;;;;;;3.00;1.77;;;15.40;1.00;;;;;;5092832;28;20725;-71
2023/09/25 02:23:00;;;;;;;2.20;2.00;;;15.40;1.00;;;;;;5096522;28;20187;-71
2023/09/25 02:25:26;;;;;;;1.93;1.77;;;15.40;1.00;;;;;;5097036;28;20179;-70
2023/09/25 02:27:52;;;;;;;3.67;1.93;;;15.50;1.00;;;;;;5097347;28;20167;-71
2023/09/25 02:30:17;;;;;;;3.80;1.93;;;15.50;1.00;;;;;;5095899;28;20234;-72
2023/09/25 02:32:43;;;;;;;2.77;1.90;;;15.50;1.00;;;;;;5097187;28;20172;-72
2023/09/25 02:35:09;;;;;;;2.43;2.23;;;15.50;1.00;;;;;;5095830;28;20699;-71
2023/09/25 02:37:37;;;;;;;2.20;2.00;;;15.50;1.00;;;;;;5095279;28;20540;-70
2023/09/25 02:40:05;;;;;;;2.80;2.00;;;15.60;1.00;;;;;;5096876;28;20176;-71
2023/09/25 02:42:31;;;;;;;2.20;2.00;;;15.50;1.00;;;;;;5096633;28;20167;-71
2023/09/25 02:44:56;;;;;;;3.13;2.20;;;15.40;1.00;;;;;;5096807;28;20180;-72
2023/09/25 02:47:22;;;;;;;3.07;2.10;;;15.40;1.00;;;;;;5096865;28;20156;-71
2023/09/25 02:49:47;;;;;;;4.20;2.10;;;15.40;1.00;;;;;;5096580;28;20532;-71
2023/09/25 02:52:13;;;;;;;1.93;1.83;;;15.30;1.00;;;;;;5096331;28;20221;-71
2023/09/25 02:54:39;;;;;;;2.20;2.00;;;15.30;1.00;;;;;;5096401;28;20246;-71
2023/09/25 02:57:04;;;;;;;2.10;1.90;;;15.30;1.00;;;;;;5096455;28;20184;-71
2023/09/25 02:59:30;;;;;;;2.00;1.90;;;15.30;1.00;;;;;;5096557;28;20170;-71
2023/09/25 03:01:56;;;;;;;2.23;2.03;;;15.20;1.00;;;;;;5096412;28;20176;-71
2023/09/25 03:04:22;;;;;;;2.33;2.10;;;15.20;1.00;;;;;;5096283;28;20207;-71
2023/09/25 03:06:47;;;;;;;2.07;1.83;;;15.20;1.00;;;;;;5094836;28;20183;-71
2023/09/25 03:09:13;;;;;;;2.20;2.00;;;15.20;1.00;;;;;;5096089;28;20244;-71
2023/09/25 03:11:38;;;;;;;2.40;2.03;;;15.20;1.00;;;;;;5096174;28;20223;-71
2023/09/25 03:14:04;;;;;;;2.10;1.90;;;15.20;1.00;;;;;;5096011;28;20199;-71
2023/09/25 03:16:30;;;;;;;2.63;2.10;;;15.30;1.00;;;;;;5096244;28;20534;-71
2023/09/25 03:18:56;;;;;;;2.43;1.90;;;15.30;1.00;;;;;;5096200;28;20631;-71
2023/09/25 03:21:22;;;;;;;2.47;1.87;;;15.30;1.00;;;;;;5093701;28;20301;-70
2023/09/25 03:23:47;;;;;;;5.80;2.13;;;15.30;1.00;;;;;;5095574;28;20211;-71
2023/09/25 03:26:14;;;;;;;2.30;2.00;;;15.30;1.00;;;;;;5095860;28;20193;-71
2023/09/25 03:28:40;;;;;;;3.17;2.27;;;15.30;1.00;;;;;;5095895;28;20180;-71
2023/09/25 03:31:06;;;;;;;2.50;2.13;;;15.30;1.00;;;;;;5095352;28;20167;-71
2023/09/25 03:33:31;;;;;;;2.53;2.20;;;15.30;1.00;;;;;;5095320;28;20207;-71
2023/09/25 03:35:57;;;;;;;5.03;2.33;;;15.30;1.00;;;;;;5095305;28;20214;-72
2023/09/25 03:38:23;;;;;;;5.30;2.40;;;15.30;1.00;;;;;;5095351;28;20176;-71
2023/09/25 03:40:49;;;;;;;2.50;2.30;;;15.20;1.00;;;;;;5095557;28;20202;-72
2023/09/25 03:43:14;;;;;;;3.63;2.10;;;15.20;1.00;;;;;;5095576;28;20726;-70
2023/09/25 03:45:40;;;;;;;3.23;2.20;;;15.20;1.00;;;;;;5095372;28;20176;-70
2023/09/25 03:48:06;;;;;;;2.30;2.10;;;15.10;1.00;;;;;;5095231;28;20250;-70
2023/09/25 03:50:31;;;;;;;2.17;2.03;;;15.10;1.00;;;;;;5094938;28;20172;-70
2023/09/25 03:53:00;;;;;;;4.13;2.03;;;15.10;1.00;;;;;;5094604;28;20179;-71
2023/09/25 03:55:26;;;;;;;3.40;2.10;;;15.10;1.00;;;;;;5094977;28;20168;-70
2023/09/25 03:57:51;;;;;;;2.40;1.83;;;15.00;1.00;;;;;;5095196;28;20225;-70
2023/09/25 04:00:17;;;;;;;2.47;2.17;;;15.00;1.00;;;;;;5095159;28;20203;-71
2023/09/25 04:02:42;;;;;;;2.60;2.13;;;14.90;1.00;;;;;;5094983;28;20176;-71
2023/09/25 04:05:10;;;;;;;3.63;2.23;;;14.90;2.70;;;;;;5093022;28;20179;-71
2023/09/25 04:07:35;;;;;;;3.57;2.20;;;14.90;2.20;;;;;;5094810;28;20263;-70
2023/09/25 04:10:07;;;;;;;3.67;2.57;;;14.90;1.60;;;;;;5094743;28;20252;-69
2023/09/25 04:12:34;;;;;;;3.50;2.53;;;14.90;3.10;;;;;;5094885;28;20180;-69
2023/09/25 04:15:00;;;;;;;3.30;2.80;;;14.90;1.10;;;;;;5094685;28;20199;-70
2023/09/25 04:17:26;;;;;;;4.13;2.63;;;14.90;3.30;;;;;;5094523;28;20180;-70
2023/09/25 04:19:52;;;;;;;5.13;2.87;;;14.90;2.90;;;;;;5094043;28;20203;-71
2023/09/25 04:22:19;;;;;;;3.70;3.10;;;14.90;2.30;;;;;;5094649;28;20192;-70
2023/09/25 04:24:45;;;;;;;4.07;2.93;;;14.90;2.30;;;;;;5094730;28;20270;-70
2023/09/25 04:27:11;;;;;;;4.80;2.90;;;14.90;3.90;;;;;;5094495;28;20175;-70
2023/09/25 04:29:38;;;;;;;4.53;2.77;;;14.90;2.30;;;;;;5094614;28;20175;-72
2023/09/25 04:32:04;;;;;;;3.90;2.80;;;15.00;1.00;;;;;;5094355;28;20203;-71
2023/09/25 04:34:30;;;;;;;3.00;2.17;;;14.90;2.60;;;;;;5093988;28;20176;-71
2023/09/25 04:36:58;;;;;;;3.47;2.60;;;14.90;1.00;;;;;;5093765;28;20643;-71
2023/09/25 04:39:24;;;;;;;4.27;3.10;;;14.90;3.40;;;;;;5094248;28;20242;-71
2023/09/25 04:41:50;;;;;;;4.90;3.10;;;14.90;2.80;;;;;;5094046;28;20262;-71
2023/09/25 04:44:16;;;;;;;3.37;2.73;;;14.90;1.50;;;;;;5093384;28;20211;-71
2023/09/25 04:46:41;;;;;;;3.20;2.80;;;14.90;6.60;;;;;;5093974;28;20168;-71
2023/09/25 04:49:08;;;;;;;6.73;2.87;;;14.90;4.70;;;;;;5093350;28;20172;-71
2023/09/25 04:51:34;;;;;;;3.77;2.67;;;14.80;7.90;;;;;;5093859;28;20252;-71
2023/09/25 04:54:00;;;;;;;3.70;2.90;;;14.80;8.50;;;;;;5093716;28;20168;-71
2023/09/25 04:56:29;;;;;;;6.50;2.97;;;14.80;8.60;;;;;;5093778;28;20256;-71
2023/09/25 04:58:55;;;;;;;3.90;3.33;;;14.80;10.40;;;;;;5093685;28;20168;-71
2023/09/25 05:01:21;;;;;;;2.90;2.60;;;14.70;9.80;;;;;;5093801;28;20680;-71
2023/09/25 05:03:46;;;;;;;6.53;2.60;;;14.70;10.80;;;;;;5092775;28;20285;-71
2023/09/25 05:06:12;;;;;;;5.77;2.77;;;14.70;11.80;;;;;;5093154;28;20601;-71
2023/09/25 05:08:38;;;;;;;3.87;2.90;;;14.70;13.60;;;;;;5093762;28;20703;-71
2023/09/25 05:11:07;;;;;;;5.17;3.10;;;14.60;14.70;;;;;;5092781;28;20271;-72
2023/09/25 05:13:33;;;;;;;3.43;2.97;;;14.70;16.40;;;;;;5093849;28;20642;-72
2023/09/25 05:16:01;;;;;;;3.63;2.37;;;14.60;17.00;;;;;;5093160;28;20164;-71
2023/09/25 05:18:27;;;;;;;4.20;2.70;;;14.50;16.80;;;;;;5092489;28;20168;-71
2023/09/25 05:20:53;;;;;;;2.87;2.67;;;14.50;19.90;;;;;;5092271;28;20283;-72
2023/09/25 05:23:20;;;;;;;5.90;2.80;;;14.50;20.90;;;;;;5093021;28;20184;-72
2023/09/25 05:25:46;;;;;;;7.10;3.17;;;14.50;20.70;;;;;;5091223;28;20471;-71
2023/09/25 05:28:12;;;;;;;3.77;2.47;;;14.50;18.70;;;;;;5093304;28;20248;-70
2023/09/25 05:30:38;;;;;;;3.33;2.70;;;14.50;18.80;;;;;;5093036;28;20171;-71
2023/09/25 05:33:03;;;;;;;8.03;3.27;;;14.50;19.00;;;;;;5091686;28;20203;-71
2023/09/25 05:35:30;;;;;;;6.10;2.50;;;14.50;20.30;;;;;;5092690;28;20627;-71
2023/09/25 05:37:56;;;;;;;6.57;3.10;;;14.50;19.60;;;;;;5092457;28;20249;-72
2023/09/25 05:40:22;;;;;;;6.20;3.00;;;14.50;20.80;;;;;;5092042;28;20172;-72
2023/09/25 05:42:48;;;;;;;9.00;2.90;;;14.50;20.60;;;;;;5092850;28;20171;-72
2023/09/25 05:45:15;;;;;;;6.00;2.70;;;14.50;18.20;;;;;;5092914;28;20179;-71
2023/09/25 05:47:43;;;;;;;3.63;2.50;;;14.50;20.20;;;;;;5091928;28;20683;-72
2023/09/25 05:50:09;;;;;;;4.70;2.40;;;14.60;17.70;;;;;;5092298;28;20191;-73
2023/09/25 05:52:36;;;;;;;6.43;2.80;;;14.60;14.70;;;;;;5092699;28;20624;-72
2023/09/25 05:55:04;;;;;;;6.60;3.03;;;14.70;15.70;;;;;;5092031;28;20208;-71
2023/09/25 05:57:30;;;;;;;3.87;2.40;;;14.70;14.60;;;;;;5090528;28;20543;-72
2023/09/25 05:59:56;;;;;;;2.83;2.43;;;14.80;11.60;;;;;;5091443;28;20259;-72
2023/09/25 06:02:22;;;;;;;6.60;2.93;;;14.80;10.10;;;;;;5092122;28;20180;-71
2023/09/25 06:04:48;;;;;;;4.50;2.40;;;14.90;8.10;;;;;;5091894;28;20214;-71
2023/09/25 06:07:14;;;;;;;7.17;3.03;;;15.00;4.70;;;;;;5091739;28;20282;-72
2023/09/25 06:09:40;;;;;;;5.07;3.10;;;15.10;4.50;;;;;;5091442;28;20240;-72
2023/09/25 06:12:05;;;;;;;5.90;3.00;;;15.10;2.80;;;;;;5092131;28;20171;-72
2023/09/25 06:14:31;;;;;;;10.40;3.30;;;15.20;1.00;;;;;;5090201;28;20176;-73
2023/09/25 06:16:59;;;;;;;8.57;2.87;;;15.40;1.00;;;;;;5092613;28;20301;-71
2023/09/25 06:19:25;;;;;;;6.50;2.97;;;15.40;1.00;;;;;;5092111;28;20246;-72
2023/09/25 06:21:51;;;;;;;7.83;3.03;;;15.50;1.00;;;;;;5092530;28;20224;-72
2023/09/25 06:24:17;;;;;;;8.03;3.40;;;15.60;1.00;;;;;;5091479;28;20310;-72
2023/09/25 06:26:46;;;;;;;8.00;3.10;;;15.70;1.00;;;;;;5091680;28;20574;-72
2023/09/25 06:29:13;;;;;;;5.97;3.27;;;15.80;1.00;;;;;;5092062;28;20203;-72
2023/09/25 06:31:39;;;;;;;5.27;2.70;;;16.00;1.00;;;;;;5091896;28;20179;-72
2023/09/25 06:34:09;;;;;;;4.50;2.47;;;16.10;1.00;;;;;;5092386;28;20259;-72
2023/09/25 06:36:35;;;;;;;5.33;3.20;;;16.30;1.00;;;;;;5092164;28;20192;-71
2023/09/25 06:39:02;;;;;;;9.73;2.77;;;16.50;1.00;;;;;;5091769;28;20180;-73
2023/09/25 06:41:27;;;;;;;18.60;3.80;;;16.70;1.00;;;;;;5090956;28;20216;-72
2023/09/25 06:43:54;;;;;;;15.13;3.07;;;17.20;1.00;;;;;;5091499;28;20330;-75
2023/09/25 06:46:20;;;;;;;7.17;3.00;;;17.90;1.00;;;;;;5092198;28;20570;-73
2023/09/25 06:48:50;;;;;;;6.03;2.90;;;18.20;1.00;;;;;;5091446;28;20214;-73
2023/09/25 06:51:16;;;;;;;6.68;2.67;;;18.30;1.00;;;;;;5090049;28;20176;-73
2023/09/25 06:53:42;;;;;;;5.93;2.72;;;18.60;1.00;;;;;;5090393;28;20168;-74
2023/09/25 06:56:08;;;;;;;14.25;3.55;;;19.30;99.90;;;;;;5092001;28;20531;-74
2023/09/25 06:58:34;;;;;;;9.48;3.00;;;19.80;1.00;;;;;;5091161;28;20179;-74
2023/09/25 07:01:00;;;;;;;6.50;2.97;;;19.80;99.90;;;;;;5091173;28;20196;-72
2023/09/25 07:03:26;;;;;;;6.03;3.28;;;19.80;1.00;;;;;;5091472;28;20203;-75
2023/09/25 07:05:51;;;;;;;10.23;3.10;;;20.30;1.00;;;;;;5089068;28;20223;-73
2023/09/25 07:08:18;;;;;;;7.00;3.03;;;21.30;1.00;;;;;;5092988;28;20643;-71
2023/09/25 07:10:46;;;;;;;6.70;2.63;;;21.60;95.20;;;;;;5091335;28;20658;-76
2023/09/25 07:13:12;;;;;;;6.80;2.70;;;21.40;94.90;;;;;;5080524;28;20229;-71
2023/09/25 07:15:39;;;;;;;3.72;2.67;;;21.20;94.70;;;;;;5081470;28;20607;-74
2023/09/25 07:18:04;;;;;;;2.97;2.78;;;21.30;94.80;;;;;;5074484;28;20191;-72
2023/09/25 07:20:30;;;;;;;5.78;2.47;;;21.10;95.00;;;;;;5076216;28;20232;-73
2023/09/25 07:22:56;;;;;;;3.38;2.30;;;20.80;94.80;;;;;;5074872;28;20229;-72
2023/09/25 07:25:21;;;;;;;4.55;2.53;;;21.00;94.10;;;;;;5090691;28;20252;-72
2023/09/25 07:27:48;;;;;;;4.20;2.40;;;21.20;93.40;;;;;;5079126;28;20200;-73
2023/09/25 07:30:14;;;;;;;5.25;2.70;;;21.50;92.70;;;;;;5074279;28;20218;-73
2023/09/25 07:32:42;;;;;;;5.47;2.53;;;22.00;92.60;;;;;;5087419;28;20175;-71
2023/09/25 07:35:09;;;;;;;4.47;2.45;;;21.70;91.70;;;;;;5105180;28;20171;-72
2023/09/25 07:37:36;;;;;;;7.32;2.67;;;21.30;92.00;;;;;;5084231;28;20643;-72
2023/09/25 07:40:08;;;;;;;4.63;3.00;;;21.20;99.90;;;;;;5079301;28;20180;-72
2023/09/25 07:42:34;;;;;;;7.53;3.40;;;21.60;49.80;;;;;;5071867;28;20181;-74
2023/09/25 07:44:59;;;;;;;11.57;3.20;;;21.80;1.00;;;;;;5099367;28;20291;-74
2023/09/25 07:47:29;;;;;;;10.45;3.00;;;22.40;99.90;;;;;;5107987;28;20634;-74
2023/09/25 07:49:54;;;;;;;5.03;2.50;;;22.30;1.00;;;;;;5107331;28;20160;-73
2023/09/25 07:52:20;;;;;;;6.47;2.75;;;22.50;1.00;;;;;;5092977;28;20180;-72
2023/09/25 07:54:50;;;;;;;11.05;3.20;;;22.70;1.00;;;;;;5098885;28;20265;-73
2023/09/25 07:57:21;;;;;;;4.82;2.70;;;22.50;1.00;;;;;;5082329;28;20176;-72
2023/09/25 07:59:50;;;;;;;15.23;3.47;;;22.30;1.00;;;;;;5084925;28;20172;-73
2023/09/25 08:02:20;;;;;;;16.17;3.30;;;22.30;1.00;;;;;;5076668;28;20180;-75
2023/09/25 08:04:47;;;;;;;6.75;2.53;;;22.90;99.90;;;;;;5082323;28;20207;-74
2023/09/25 08:07:13;;;;;;;13.75;2.95;;;22.70;99.90;;;;;;5086548;28;20184;-71
2023/09/25 08:09:38;;;;;;;8.43;2.85;;;22.70;1.00;;;;;;5081001;28;20257;-73
2023/09/25 08:12:05;;;;;;;9.05;3.00;;;22.40;1.00;;;;;;5082226;28;20172;-72
2023/09/25 08:14:31;;;;;;;10.15;2.80;;;22.90;1.00;;;;;;5087416;28;20176;-72
2023/09/25 08:16:57;;;;;;;6.03;2.95;;;23.70;99.90;;;;;;5088235;28;20177;-72
2023/09/25 08:19:23;;;;;;;4.65;2.33;;;23.70;1.00;;;;;;5073599;28;20192;-73
2023/09/25 08:21:53;;;;;;;6.57;2.65;;;23.90;1.00;;;;;;5074578;28;20228;-74
2023/09/25 08:24:20;;;;;;;5.43;2.47;;;24.30;1.00;;;;;;5090181;28;20215;-73
2023/09/25 08:26:48;;;;;;;8.20;2.25;;;24.50;99.90;;;;;;5087080;28;20176;-72
2023/09/25 08:29:16;;;;;;;8.00;2.83;;;24.50;99.90;;;;;;5074959;28;20613;-72
2023/09/25 08:31:44;;;;;;;5.88;2.97;;;24.90;99.90;;;;;;5086816;28;20318;-74
2023/09/25 08:34:10;;;;;;;2.50;1.90;;;24.10;99.90;;;;;;5076239;28;20648;-72
2023/09/25 08:36:37;;;;;;;4.72;2.00;;;23.70;99.90;;;;;;5077887;28;20181;-72
2023/09/25 08:39:03;;;;;;;7.22;2.15;;;23.70;1.00;;;;;;5071661;28;20180;-73
2023/09/25 08:41:31;;;;;;;7.13;2.60;;;23.70;1.00;;;;;;5078915;28;20207;-72
2023/09/25 08:43:57;;;;;;;6.53;2.60;;;23.80;1.00;;;;;;5075694;28;20215;-71
2023/09/25 08:46:24;;;;;;;5.03;2.10;;;24.00;1.00;;;;;;5091729;28;20202;-73
2023/09/25 08:48:52;;;;;;;4.85;2.05;;;24.00;1.00;;;;;;5092603;28;20171;-74
2023/09/25 08:51:20;;;;;;;4.05;2.10;;;24.10;1.00;;;;;;5081229;28;20176;-73
2023/09/25 08:53:46;;;;;;;6.68;2.40;;;24.60;99.90;;;;;;5074559;28;20207;-73
2023/09/25 08:56:14;;;;;;;12.23;3.08;;;24.10;1.00;;;;;;5079391;28;21494;-73
2023/09/25 08:58:43;;;;;;;8.98;3.00;;;24.10;1.00;;;;;;5079601;28;20199;-73
2023/09/25 09:01:09;;;;;;;4.80;2.50;;;24.80;1.00;;;;;;5086901;28;20176;-73
2023/09/25 09:03:34;;;;;;;7.47;3.15;;;25.10;99.90;;;;;;5084686;28;20253;-73
2023/09/25 09:06:00;;;;;;;5.78;2.67;;;24.80;99.90;;;;;;5074453;28;21017;-73
2023/09/25 09:08:29;;;;;;;8.77;3.33;;;24.90;99.90;;;;;;5088986;28;20203;-72
2023/09/25 09:10:55;;;;;;;5.15;2.50;;;25.20;99.90;;;;;;5086445;28;20683;-73
2023/09/25 09:13:24;;;;;;;9.32;2.67;;;24.90;99.90;;;;;;5087304;28;20176;-72
2023/09/25 09:15:50;;;;;;;5.43;2.47;;;25.10;99.90;;;;;;5095696;28;20185;-73
2023/09/25 09:18:34;;;;;;;4.70;2.90;;;25.50;99.90;;;;;;5094413;28;20181;-73
2023/09/25 09:21:00;;;;;;;6.47;2.78;;;26.20;99.90;;;;;;5083608;28;20219;-73
2023/09/25 09:23:42;;;;;;;2.50;2.30;;;26.30;59.60;;;;;;5084707;28;20257;-72
2023/09/25 09:26:12;;;;;;;7.32;3.13;;;25.90;60.60;;;;;;5073282;28;20167;-73
2023/09/25 09:28:37;;;;;;;7.22;2.65;;;25.80;82.00;;;;;;5082344;28;20210;-73
2023/09/25 09:31:07;;;;;;;7.07;2.75;;;26.60;4.00;;;;;;5087075;28;20175;-72
2023/09/25 09:33:37;;;;;;;7.05;2.35;;;27.60;1.00;;;;;;5091407;28;20219;-72
2023/09/25 09:36:03;;;;;;;5.07;2.55;;;27.70;1.00;;;;;;5104559;28;20171;-71
2023/09/25 09:38:29;;;;;;;2.78;2.38;;;27.30;1.00;;;;;;5093784;28;20183;-73
2023/09/25 09:40:55;;;;;;;3.25;2.20;;;26.40;1.00;;;;;;5078319;28;20183;-73
2023/09/25 09:43:23;;;;;;;4.22;2.40;;;26.20;1.00;;;;;;5084552;28;20289;-73
2023/09/25 09:45:50;;;;;;;3.13;2.50;;;26.40;1.00;;;;;;5106158;28;20174;-72
2023/09/25 09:48:19;;;;;;;3.75;2.30;;;27.40;1.00;;;;;;5083613;28;20221;-72
2023/09/25 09:50:49;;;;;;;2.90;2.10;;;26.70;1.00;;;;;;5090925;28;20169;-72
2023/09/25 09:53:17;;;;;;;3.67;2.50;;;26.40;1.00;;;;;;5081310;28;20180;-73
2023/09/25 09:55:45;;;;;;;8.60;3.00;;;26.70;1.00;;;;;;5071962;28;20173;-73
2023/09/25 09:58:12;;;;;;;4.72;1.88;;;26.40;1.00;;;;;;5073319;28;20176;-72
2023/09/25 10:00:41;;;;;;;5.00;2.30;;;26.20;1.00;;;;;;5082407;28;20173;-72
2023/09/25 10:03:08;;;;;;;3.42;1.73;;;26.50;1.00;;;;;;5085022;28;20210;-73
2023/09/25 10:05:44;;;;;;;5.90;2.40;;;26.60;1.00;;;;;;5074810;28;20176;-74
2023/09/25 10:08:10;;;;;;;5.03;2.83;;;26.80;1.00;;;;;;5087293;28;20172;-72
2023/09/25 10:10:38;;;;;;;3.55;2.05;;;27.10;1.00;;;;;;5091390;28;20647;-72
2023/09/25 10:13:11;;;;;;;3.88;2.40;;;27.50;1.00;;;;;;5077834;28;20172;-72
2023/09/25 10:15:38;;;;;;;2.38;1.90;;;27.80;1.00;;;;;;5092309;28;20657;-73
2023/09/25 10:18:05;;;;;;;2.75;1.77;;;27.00;1.00;;;;;;5080840;28;20222;-72
2023/09/25 10:20:33;;;;;;;3.50;1.90;;;26.80;1.00;;;;;;5090338;28;20231;-72
2023/09/25 10:23:09;;;;;;;2.33;1.88;;;26.90;1.00;;;;;;5086163;28;20176;-72
2023/09/25 10:25:50;;;;;;;2.90;2.20;;;27.20;1.00;;;;;;5080357;28;20171;-72
2023/09/25 10:28:17;;;;;;;5.00;2.72;;;27.20;1.00;;;;;;5073926;28;20177;-72
2023/09/25 10:30:43;;;;;;;4.30;3.28;;;27.30;1.00;;;;;;5087258;28;20229;-72
2023/09/25 10:33:09;;;;;;;2.83;2.20;;;28.30;1.00;;;;;;5075731;28;20176;-73
2023/09/25 10:35:48;;;;;;;5.15;2.80;;;28.80;1.00;;;;;;5073905;28;20192;-72
2023/09/25 10:38:28;;;;;;;5.18;1.90;;;29.10;1.00;;;;;;5079453;28;20167;-72
2023/09/25 10:40:55;;;;;;;2.42;2.15;;;28.70;1.00;;;;;;5108959;28;20179;-73
2023/09/25 10:43:23;;;;;;;2.92;2.30;;;28.60;1.00;;;;;;5082521;28;20581;-72
2023/09/25 10:45:50;;;;;;;3.33;2.10;;;28.30;1.00;;;;;;5077773;28;20224;-73
2023/09/25 10:48:18;;;;;;;2.80;2.10;;;28.50;1.00;;;;;;5082302;28;20188;-71
2023/09/25 10:50:44;;;;;;;3.55;2.42;;;27.90;99.90;;;;;;5077756;28;20184;-72
2023/09/25 10:53:11;;;;;;;2.47;2.20;;;27.80;99.90;;;;;;5084159;28;20184;-72
2023/09/25 10:55:37;;;;;;;7.55;2.20;;;28.60;1.00;;;;;;5090422;28;20204;-71
2023/09/25 10:58:04;;;;;;;4.70;2.10;;;28.80;1.00;;;;;;5078678;28;20207;-72
2023/09/25 11:00:34;;;;;;;3.83;2.35;;;29.60;1.00;;;;;;5086852;28;20210;-73
2023/09/25 11:03:01;;;;;;;2.50;2.20;;;29.40;1.00;;;;;;5075233;28;20664;-72
2023/09/25 11:05:32;;;;;;;4.53;2.03;;;28.60;99.90;;;;;;5088887;28;20180;-73
2023/09/25 11:07:58;;;;;;;5.80;4.00;;;29.10;1.00;;;;;;5095335;28;20179;-73
2023/09/25 11:10:29;;;;;;;2.63;2.42;;;29.70;73.50;;;;;;5095386;28;20187;-73
2023/09/25 11:12:57;;;;;;;5.55;3.33;;;30.10;1.00;;;;;;5095511;28;20156;-72
2023/09/25 11:15:24;;;;;;;4.22;2.35;;;29.70;99.90;;;;;;5095383;28;20199;-72
2023/09/25 11:17:50;;;;;;;5.80;2.05;;;28.50;1.00;;;;;;5093717;28;20628;-71
2023/09/25 11:20:18;;;;;;;2.58;1.98;;;28.30;1.00;;;;;;5095200;28;20268;-72
2023/09/25 11:22:46;;;;;;;2.97;2.25;;;28.80;1.00;;;;;;5091488;28;20171;-71
2023/09/25 11:25:15;;;;;;;3.55;2.30;;;29.00;1.00;;;;;;5086544;28;20317;-72
2023/09/25 11:27:51;;;;;;;2.40;2.20;;;29.40;99.90;;;;;;5093935;28;20479;-71
2023/09/25 11:30:17;;;;;;;2.58;1.90;;;29.40;1.00;;;;;;5095438;28;20172;-71
2023/09/25 11:32:43;;;;;;;2.95;2.28;;;29.30;99.90;;;;;;5095495;28;20724;-72
2023/09/25 11:35:13;;;;;;;6.47;2.85;;;28.80;99.90;;;;;;5087159;28;20191;-73
2023/09/25 11:37:59;;;;;;;5.28;2.30;;;29.30;99.90;;;;;;5094617;28;20635;-72
2023/09/25 11:40:26;;;;;;;3.15;1.80;;;28.40;1.00;;;;;;5084750;28;20274;-72
2023/09/25 11:42:52;;;;;;;2.65;2.03;;;28.00;1.00;;;;;;5094908;28;20176;-71
2023/09/25 11:45:19;;;;;;;2.40;2.08;;;28.10;1.00;;;;;;5088748;28;20188;-70
2023/09/25 11:47:45;;;;;;;4.40;2.30;;;28.80;1.00;;;;;;5094839;28;20216;-72
2023/09/25 11:50:13;;;;;;;2.47;2.28;;;28.80;1.00;;;;;;5094507;28;20263;-72
2023/09/25 11:52:46;;;;;;;3.45;2.08;;;29.00;1.00;;;;;;5086337;28;20184;-71
2023/09/25 11:55:14;;;;;;;2.40;2.20;;;29.00;1.00;;;;;;5085047;28;20175;-70
2023/09/25 11:57:44;;;;;;;4.07;2.05;;;28.80;1.00;;;;;;5083245;28;20176;-71
2023/09/25 12:00:10;;;;;;;5.50;3.22;;;27.90;1.00;;;;;;5088059;28;20658;-71
2023/09/25 12:02:36;;;;;;;3.38;2.30;;;28.20;1.00;;;;;;5095893;28;20624;-71
2023/09/25 12:05:03;;;;;;;5.72;3.00;;;27.90;1.00;;;;;;5101819;28;20207;-71
2023/09/25 12:07:32;;;;;;;2.42;2.22;;;27.20;1.00;;;;;;5099211;28;20266;-71
2023/09/25 12:09:59;;;;;;;5.93;2.42;;;26.50;1.00;;;;;;5078824;28;20583;-71
2023/09/25 12:12:25;;;;;;;3.58;2.40;;;26.40;1.00;;;;;;5094593;28;20188;-71
2023/09/25 12:14:56;;;;;;;3.50;2.40;;;26.20;1.00;;;;;;5087715;28;20172;-70
2023/09/25 12:17:25;;;;;;;4.05;2.75;;;26.50;1.00;;;;;;5078370;28;20188;-70
2023/09/25 12:19:51;;;;;;;3.55;2.88;;;25.90;1.00;;;;;;5093325;28;20199;-71
2023/09/25 12:22:16;;;;;;;3.30;2.40;;;25.80;1.00;;;;;;5094922;28;20283;-71
2023/09/25 12:24:42;;;;;;;8.60;2.88;;;25.70;1.00;;;;;;5086653;28;20315;-71
2023/09/25 12:27:08;;;;;;;6.50;2.63;;;25.80;1.00;;;;;;5084942;28;20197;-71
2023/09/25 12:29:34;;;;;;;4.15;2.88;;;25.70;1.00;;;;;;5099781;28;20178;-70
2023/09/25 12:32:00;;;;;;;3.25;2.45;;;25.40;1.00;;;;;;5101582;28;20176;-71
2023/09/25 12:34:25;;;;;;;3.60;2.40;;;25.20;1.00;;;;;;5108443;28;20183;-71
2023/09/25 12:36:51;;;;;;;3.92;2.35;;;25.00;1.00;;;;;;5094163;28;20632;-71
2023/09/25 12:39:17;;;;;;;5.05;2.78;;;24.50;1.00;;;;;;5104264;28;20180;-71
2023/09/25 12:41:43;;;;;;;5.13;2.95;;;24.50;99.90;;;;;;5096093;28;20190;-70
2023/09/25 12:44:09;;;;;;;3.67;3.25;;;24.50;99.90;;;;;;5092584;28;20563;-70
2023/09/25 12:46:35;;;;;;;7.40;3.17;;;24.30;99.90;;;;;;5096907;28;20263;-71
2023/09/25 12:49:00;;;;;;;4.32;2.72;;;24.40;99.90;;;;;;5082956;28;20176;-70
2023/09/25 12:51:26;;;;;;;6.45;2.83;;;24.50;99.90;;;;;;5087553;28;20651;-70